createdAt,value
2023-05-09T00:00:24.499Z,66.47
2023-05-09T00:01:24.475Z,66.16
2023-05-09T00:02:24.653Z,66.06
2023-05-09T00:03:24.458Z,65.75
2023-05-09T00:04:24.452Z,65.55
2023-05-09T00:05:24.421Z,65.42
2023-05-09T00:06:24.411Z,65.55
2023-05-09T00:07:24.448Z,65.65
2023-05-09T00:08:24.389Z,65.55
2023-05-09T00:09:24.380Z,65.52
2023-05-09T00:10:24.370Z,65.52
2023-05-09T00:11:24.384Z,65.21
2023-05-09T00:12:24.355Z,65.75
2023-05-09T00:13:24.389Z,65.52
2023-05-09T00:14:24.323Z,65.62
2023-05-09T00:15:24.428Z,65.31
2023-05-09T00:16:24.442Z,65.21
2023-05-09T00:17:24.342Z,65.21
2023-05-09T00:18:24.296Z,65.18
2023-05-09T00:19:24.366Z,64.77
2023-05-09T00:20:24.276Z,64.67
2023-05-09T00:21:24.260Z,64.16
2023-05-09T00:22:24.247Z,64.43
2023-05-09T00:23:24.248Z,64.57
2023-05-09T00:24:24.217Z,64.23
2023-05-09T00:25:24.239Z,64.33
2023-05-09T00:26:24.226Z,64.54
2023-05-09T00:27:24.192Z,64.64
2023-05-09T00:28:24.169Z,64.64
2023-05-09T00:29:24.174Z,64.54
2023-05-09T00:30:24.166Z,63.82
2023-05-09T00:31:24.259Z,63.92
2023-05-09T00:32:24.215Z,63.82
2023-05-09T00:33:24.117Z,63.41
2023-05-09T00:34:24.118Z,63.62
2023-05-09T00:35:24.115Z,62.66
2023-05-09T00:36:24.092Z,62.98
2023-05-09T00:37:24.074Z,63.07
2023-05-09T00:38:24.071Z,62.98
2023-05-09T00:39:24.115Z,62.66
2023-05-09T00:40:24.054Z,62.66
2023-05-09T00:41:24.028Z,62.87
2023-05-09T00:42:24.018Z,62.36
2023-05-09T00:43:24.012Z,61.65
2023-05-09T00:44:24.021Z,62.05
2023-05-09T00:45:23.991Z,63.07
2023-05-09T00:46:24.003Z,61.85
2023-05-09T00:47:24.147Z,61.24
2023-05-09T00:48:23.960Z,61.24
2023-05-09T00:49:23.991Z,61.92
2023-05-09T00:50:23.935Z,61.44
2023-05-09T00:51:23.922Z,61.85
2023-05-09T00:52:23.921Z,61.34
2023-05-09T00:53:23.920Z,61.41
2023-05-09T00:54:23.924Z,61.41
2023-05-09T00:55:23.878Z,61.95
2023-05-09T00:56:23.873Z,61.72
2023-05-09T00:57:23.861Z,61.61
2023-05-09T00:58:23.858Z,61.61
2023-05-09T00:59:23.847Z,61.82
2023-05-09T01:00:23.827Z,61.00
2023-05-09T01:01:23.896Z,60.80
2023-05-09T01:02:23.957Z,60.62
2023-05-09T01:03:24.091Z,61.03
2023-05-09T01:04:23.782Z,61.34
2023-05-09T01:05:23.772Z,61.95
2023-05-09T01:06:23.765Z,60.80
2023-05-09T01:07:23.761Z,61.03
2023-05-09T01:08:23.750Z,60.93
2023-05-09T01:09:23.733Z,60.93
2023-05-09T01:10:23.714Z,60.80
2023-05-09T01:11:23.707Z,61.21
2023-05-09T01:12:23.714Z,60.80
2023-05-09T01:13:23.804Z,61.24
2023-05-09T01:14:23.669Z,61.03
2023-05-09T01:15:23.664Z,60.72
2023-05-09T01:16:23.856Z,60.31
2023-05-09T01:17:23.651Z,60.72
2023-05-09T01:18:23.627Z,60.31
2023-05-09T01:19:23.728Z,61.06
2023-05-09T01:20:23.627Z,60.93
2023-05-09T01:21:23.614Z,61.16
2023-05-09T01:22:23.592Z,61.16
2023-05-09T01:23:23.582Z,60.75
2023-05-09T01:24:23.572Z,60.65
2023-05-09T01:25:23.556Z,60.75
2023-05-09T01:26:23.572Z,60.96
2023-05-09T01:27:23.541Z,61.06
2023-05-09T01:28:23.520Z,60.96
2023-05-09T01:29:23.504Z,60.75
2023-05-09T01:30:23.496Z,60.55
2023-05-09T01:31:23.540Z,60.96
2023-05-09T01:32:23.517Z,61.98
2023-05-09T01:33:23.465Z,61.16
2023-05-09T01:34:23.471Z,60.96
2023-05-09T01:35:23.559Z,61.16
2023-05-09T01:36:23.446Z,61.67
2023-05-09T01:37:23.439Z,61.06
2023-05-09T01:38:23.420Z,60.44
2023-05-09T01:39:23.400Z,61.06
2023-05-09T01:40:23.417Z,60.85
2023-05-09T01:41:23.400Z,61.09
2023-05-09T01:42:23.395Z,61.06
2023-05-09T01:43:23.357Z,61.06
2023-05-09T01:44:23.349Z,61.19
2023-05-09T01:45:23.334Z,61.09
2023-05-09T01:46:23.417Z,61.19
2023-05-09T01:47:23.351Z,61.77
2023-05-09T01:48:23.313Z,61.60
2023-05-09T01:49:23.294Z,61.06
2023-05-09T01:50:23.292Z,61.16
2023-05-09T01:51:23.403Z,60.85
2023-05-09T01:52:23.265Z,60.75
2023-05-09T01:53:23.253Z,60.55
2023-05-09T01:54:23.241Z,60.44
2023-05-09T01:55:23.240Z,60.17
2023-05-09T01:56:23.213Z,60.58
2023-05-09T01:57:23.208Z,60.96
2023-05-09T01:58:23.194Z,61.09
2023-05-09T01:59:23.205Z,60.55
2023-05-09T02:00:23.173Z,61.26
2023-05-09T02:01:23.174Z,60.27
2023-05-09T02:02:23.240Z,59.22
2023-05-09T02:03:23.199Z,59.32
2023-05-09T02:04:23.148Z,59.76
2023-05-09T02:05:23.143Z,59.86
2023-05-09T02:06:23.107Z,59.55
2023-05-09T02:07:23.224Z,59.04
2023-05-09T02:08:23.099Z,59.76
2023-05-09T02:09:23.094Z,59.55
2023-05-09T02:10:23.064Z,59.66
2023-05-09T02:11:23.057Z,58.91
2023-05-09T02:12:23.067Z,58.70
2023-05-09T02:13:23.182Z,58.61
2023-05-09T02:14:23.028Z,59.12
2023-05-09T02:15:23.009Z,58.73
2023-05-09T02:16:23.042Z,58.73
2023-05-09T02:17:23.150Z,58.09
2023-05-09T02:18:22.992Z,58.40
2023-05-09T02:19:22.976Z,58.50
2023-05-09T02:20:22.966Z,58.12
2023-05-09T02:21:22.947Z,58.43
2023-05-09T02:22:22.946Z,58.56
2023-05-09T02:23:23.101Z,58.45
2023-05-09T02:24:22.912Z,58.94
2023-05-09T02:25:22.901Z,58.35
2023-05-09T02:26:22.889Z,58.04
2023-05-09T02:27:22.892Z,58.35
2023-05-09T02:28:22.877Z,58.35
2023-05-09T02:29:22.878Z,58.76
2023-05-09T02:30:22.916Z,58.97
2023-05-09T02:31:22.893Z,58.35
2023-05-09T02:32:22.852Z,58.89
2023-05-09T02:33:22.812Z,58.56
2023-05-09T02:34:22.805Z,58.79
2023-05-09T02:35:22.801Z,58.58
2023-05-09T02:36:22.798Z,58.58
2023-05-09T02:37:22.780Z,58.66
2023-05-09T02:38:22.765Z,58.69
2023-05-09T02:39:22.860Z,58.89
2023-05-09T02:40:22.745Z,58.48
2023-05-09T02:41:22.742Z,58.28
2023-05-09T02:42:22.752Z,58.79
2023-05-09T02:43:22.704Z,58.86
2023-05-09T02:44:22.697Z,58.56
2023-05-09T02:45:22.692Z,58.86
2023-05-09T02:46:22.739Z,58.79
2023-05-09T02:47:22.713Z,58.15
2023-05-09T02:48:22.666Z,58.79
2023-05-09T02:49:31.621Z,59.00
2023-05-09T02:50:23.640Z,58.86
2023-05-09T02:51:22.647Z,58.86
2023-05-09T02:52:22.616Z,58.69
2023-05-09T02:53:22.608Z,59.00
2023-05-09T02:54:22.592Z,58.89
2023-05-09T02:55:22.735Z,58.89
2023-05-09T02:56:22.631Z,58.69
2023-05-09T02:57:22.558Z,58.48
2023-05-09T02:58:22.548Z,58.89
2023-05-09T02:59:22.553Z,59.00
2023-05-09T03:00:22.534Z,59.00
2023-05-09T03:01:22.546Z,58.79
2023-05-09T03:02:22.570Z,59.41
2023-05-09T03:03:22.610Z,58.89
2023-05-09T03:04:22.484Z,59.09
2023-05-09T03:05:22.483Z,58.79
2023-05-09T03:06:22.509Z,58.69
2023-05-09T03:07:22.463Z,59.20
2023-05-09T03:08:22.448Z,58.48
2023-05-09T03:09:22.458Z,58.92
2023-05-09T03:10:22.427Z,59.41
2023-05-09T03:11:22.522Z,59.41
2023-05-09T03:12:22.400Z,59.20
2023-05-09T03:13:22.438Z,59.20
2023-05-09T03:14:22.387Z,58.89
2023-05-09T03:15:22.362Z,58.89
2023-05-09T03:16:22.411Z,59.30
2023-05-09T03:17:22.347Z,59.02
2023-05-09T03:18:22.330Z,59.41
2023-05-09T03:19:22.359Z,59.61
2023-05-09T03:20:22.312Z,59.41
2023-05-09T03:21:22.306Z,59.20
2023-05-09T03:22:22.294Z,58.89
2023-05-09T03:23:22.302Z,59.00
2023-05-09T03:24:22.282Z,59.07
2023-05-09T03:25:22.300Z,58.76
2023-05-09T03:26:22.248Z,59.07
2023-05-09T03:27:22.368Z,59.17
2023-05-09T03:28:22.294Z,58.89
2023-05-09T03:29:22.215Z,58.69
2023-05-09T03:30:22.226Z,59.20
2023-05-09T03:31:22.228Z,59.20
2023-05-09T03:32:22.281Z,59.00
2023-05-09T03:33:22.186Z,59.27
2023-05-09T03:34:22.161Z,59.58
2023-05-09T03:35:22.159Z,58.56
2023-05-09T03:36:22.140Z,58.86
2023-05-09T03:37:22.138Z,58.76
2023-05-09T03:38:22.128Z,59.17
2023-05-09T03:39:22.116Z,59.30
2023-05-09T03:40:22.121Z,59.17
2023-05-09T03:41:22.093Z,59.38
2023-05-09T03:42:22.094Z,59.55
2023-05-09T03:43:22.182Z,59.55
2023-05-09T03:44:22.062Z,58.53
2023-05-09T03:45:22.042Z,58.33
2023-05-09T03:46:22.055Z,58.22
2023-05-09T03:47:22.036Z,58.50
2023-05-09T03:48:22.016Z,58.63
2023-05-09T03:49:21.998Z,58.94
2023-05-09T03:50:21.986Z,59.32
2023-05-09T03:51:21.993Z,59.32
2023-05-09T03:52:21.990Z,59.01
2023-05-09T03:53:21.980Z,58.91
2023-05-09T03:54:21.949Z,59.35
2023-05-09T03:55:21.934Z,59.04
2023-05-09T03:56:21.941Z,59.68
2023-05-09T03:57:21.908Z,59.48
2023-05-09T03:58:21.912Z,60.30
2023-05-09T03:59:22.018Z,59.89
2023-05-09T04:00:21.888Z,60.30
2023-05-09T04:01:21.901Z,60.30
2023-05-09T04:02:21.969Z,59.78
2023-05-09T04:03:21.905Z,59.92
2023-05-09T04:04:21.837Z,61.01
2023-05-09T04:05:21.836Z,59.27
2023-05-09T04:06:21.825Z,59.48
2023-05-09T04:07:21.807Z,59.48
2023-05-09T04:08:21.861Z,59.48
2023-05-09T04:09:21.781Z,60.40
2023-05-09T04:10:21.782Z,60.50
2023-05-09T04:11:21.755Z,60.58
2023-05-09T04:12:21.751Z,60.06
2023-05-09T04:13:21.790Z,60.50
2023-05-09T04:14:21.754Z,60.60
2023-05-09T04:15:21.841Z,60.42
2023-05-09T04:16:21.741Z,60.02
2023-05-09T04:17:21.719Z,60.81
2023-05-09T04:18:21.702Z,60.60
2023-05-09T04:19:21.676Z,60.17
2023-05-09T04:20:21.667Z,60.37
2023-05-09T04:21:21.650Z,60.27
2023-05-09T04:22:21.669Z,59.35
2023-05-09T04:23:21.628Z,59.76
2023-05-09T04:24:21.622Z,59.96
2023-05-09T04:25:21.609Z,60.81
2023-05-09T04:26:21.599Z,60.78
2023-05-09T04:27:21.611Z,60.88
2023-05-09T04:28:21.575Z,60.37
2023-05-09T04:29:21.566Z,59.63
2023-05-09T04:30:21.558Z,59.83
2023-05-09T04:31:21.778Z,59.73
2023-05-09T04:32:21.532Z,59.94
2023-05-09T04:33:21.533Z,59.60
2023-05-09T04:34:21.523Z,59.70
2023-05-09T04:35:21.820Z,58.86
2023-05-09T04:36:21.500Z,58.75
2023-05-09T04:37:21.476Z,58.55
2023-05-09T04:38:21.479Z,58.65
2023-05-09T04:39:21.466Z,58.01
2023-05-09T04:40:21.453Z,58.11
2023-05-09T04:41:21.464Z,58.42
2023-05-09T04:42:21.423Z,57.40
2023-05-09T04:43:21.430Z,57.91
2023-05-09T04:44:21.403Z,57.17
2023-05-09T04:45:21.396Z,57.37
2023-05-09T04:46:23.137Z,56.86
2023-05-09T04:47:21.533Z,56.89
2023-05-09T04:48:21.378Z,57.20
2023-05-09T04:49:21.347Z,58.01
2023-05-09T04:50:21.336Z,58.32
2023-05-09T04:51:21.330Z,58.11
2023-05-09T04:52:21.335Z,58.62
2023-05-09T04:53:21.303Z,58.04
2023-05-09T04:54:21.302Z,57.93
2023-05-09T04:55:21.295Z,58.14
2023-05-09T04:56:21.275Z,58.25
2023-05-09T04:57:21.303Z,58.01
2023-05-09T04:58:21.269Z,57.20
2023-05-09T04:59:21.256Z,57.48
2023-05-09T05:00:21.252Z,57.98
2023-05-09T05:01:21.294Z,56.94
2023-05-09T05:02:21.309Z,56.84
2023-05-09T05:03:21.323Z,57.24
2023-05-09T05:04:21.248Z,56.86
2023-05-09T05:05:25.091Z,56.66
2023-05-09T05:06:21.203Z,56.68
2023-05-09T05:07:21.151Z,57.20
2023-05-09T05:08:21.143Z,57.48
2023-05-09T05:09:21.140Z,57.98
2023-05-09T05:10:21.135Z,57.40
2023-05-09T05:11:21.118Z,58.60
2023-05-09T05:12:21.103Z,57.81
2023-05-09T05:13:21.199Z,57.27
2023-05-09T05:14:21.080Z,56.96
2023-05-09T05:15:21.073Z,56.86
2023-05-09T05:16:21.125Z,56.89
2023-05-09T05:17:21.045Z,56.66
2023-05-09T05:18:21.047Z,57.07
2023-05-09T05:19:21.045Z,57.27
2023-05-09T05:20:21.030Z,57.17
2023-05-09T05:21:21.001Z,57.04
2023-05-09T05:22:21.017Z,56.35
2023-05-09T05:23:20.986Z,56.53
2023-05-09T05:24:20.971Z,56.84
2023-05-09T05:25:20.981Z,56.32
2023-05-09T05:26:20.953Z,55.89
2023-05-09T05:27:20.943Z,56.81
2023-05-09T05:28:20.924Z,55.89
2023-05-09T05:29:20.936Z,55.89
2023-05-09T05:30:20.958Z,55.56
2023-05-09T05:31:20.923Z,54.64
2023-05-09T05:32:20.883Z,55.35
2023-05-09T05:33:20.881Z,55.76
2023-05-09T05:34:20.909Z,54.74
2023-05-09T05:35:20.962Z,54.51
2023-05-09T05:36:20.860Z,54.33
2023-05-09T05:37:20.824Z,55.35
2023-05-09T05:38:20.836Z,55.22
2023-05-09T05:39:20.825Z,55.43
2023-05-09T05:40:20.799Z,54.49
2023-05-09T05:41:20.778Z,53.88
2023-05-09T05:42:20.776Z,54.66
2023-05-09T05:43:20.787Z,53.93
2023-05-09T05:44:20.749Z,54.24
2023-05-09T05:45:20.740Z,53.70
2023-05-09T05:46:20.748Z,54.11
2023-05-09T05:47:20.713Z,52.45
2023-05-09T05:48:20.713Z,52.56
2023-05-09T05:49:20.692Z,52.23
2023-05-09T05:50:20.685Z,52.03
2023-05-09T05:51:20.782Z,51.90
2023-05-09T05:52:20.677Z,51.39
2023-05-09T05:53:20.652Z,50.90
2023-05-09T05:54:20.635Z,52.03
2023-05-09T05:55:20.632Z,50.70
2023-05-09T05:56:20.638Z,50.93
2023-05-09T05:57:20.603Z,50.95
2023-05-09T05:58:20.597Z,51.46
2023-05-09T05:59:20.585Z,52.17
2023-05-09T06:00:20.603Z,51.06
2023-05-09T06:01:20.590Z,52.17
2023-05-09T06:02:20.562Z,51.87
2023-05-09T06:03:20.620Z,52.58
2023-05-09T06:04:20.622Z,52.50
2023-05-09T06:05:20.552Z,54.00
2023-05-09T06:06:20.520Z,53.19
2023-05-09T06:07:20.643Z,52.10
2023-05-09T06:08:20.486Z,52.20
2023-05-09T06:09:20.473Z,52.28
2023-05-09T06:10:20.467Z,52.61
2023-05-09T06:11:20.476Z,51.67
2023-05-09T06:12:20.444Z,52.17
2023-05-09T06:13:20.465Z,52.08
2023-05-09T06:14:20.420Z,51.84
2023-05-09T06:15:20.407Z,51.95
2023-05-09T06:16:20.737Z,52.43
2023-05-09T06:17:20.438Z,51.92
2023-05-09T06:18:20.376Z,51.39
2023-05-09T06:19:20.363Z,51.09
2023-05-09T06:20:20.370Z,51.39
2023-05-09T06:21:20.358Z,51.01
2023-05-09T06:22:20.374Z,50.81
2023-05-09T06:23:20.459Z,51.59
2023-05-09T06:24:34.365Z,51.29
2023-05-09T06:25:21.334Z,50.37
2023-05-09T06:26:20.290Z,51.29
2023-05-09T06:27:20.277Z,52.10
2023-05-09T06:28:20.270Z,52.71
2023-05-09T06:29:20.293Z,51.21
2023-05-09T06:31:20.312Z,52.73
2023-05-09T06:32:20.231Z,52.43
2023-05-09T06:33:20.211Z,51.70
2023-05-09T06:34:20.225Z,52.40
2023-05-09T06:35:20.225Z,51.57
2023-05-09T06:36:20.192Z,51.49
2023-05-09T06:37:20.176Z,50.88
2023-05-09T06:38:20.165Z,51.79
2023-05-09T06:39:20.285Z,50.90
2023-05-09T06:40:20.152Z,50.81
2023-05-09T06:41:20.135Z,50.70
2023-05-09T06:42:20.121Z,52.43
2023-05-09T06:43:20.108Z,50.78
2023-05-09T06:44:20.113Z,50.37
2023-05-09T06:45:20.272Z,50.04
2023-05-09T06:46:20.153Z,49.82
2023-05-09T06:47:20.068Z,49.69
2023-05-09T06:48:20.061Z,48.46
2023-05-09T06:49:20.170Z,48.13
2023-05-09T06:50:20.039Z,46.99
2023-05-09T06:51:20.054Z,46.77
2023-05-09T06:52:20.013Z,46.64
2023-05-09T06:53:20.094Z,45.18
2023-05-09T06:54:19.991Z,45.26
2023-05-09T06:55:20.095Z,45.06
2023-05-09T06:56:20.121Z,45.37
2023-05-09T06:57:19.976Z,45.67
2023-05-09T06:58:19.963Z,46.78
2023-05-09T06:59:19.948Z,45.14
2023-05-09T07:00:19.930Z,44.94
2023-05-09T07:01:19.946Z,43.83
2023-05-09T07:02:19.912Z,45.75
2023-05-09T07:03:19.906Z,45.73
2023-05-09T07:04:19.880Z,44.71
2023-05-09T07:05:19.896Z,44.49
2023-05-09T07:06:19.869Z,44.98
2023-05-09T07:07:19.870Z,44.13
2023-05-09T07:08:19.848Z,44.13
2023-05-09T07:09:19.845Z,44.21
2023-05-09T07:10:19.824Z,43.40
2023-05-09T07:11:19.926Z,43.51
2023-05-09T07:12:19.815Z,43.62
2023-05-09T07:13:19.910Z,43.65
2023-05-09T07:14:19.785Z,45.32
2023-05-09T07:15:29.021Z,43.91
2023-05-09T07:16:20.820Z,44.59
2023-05-09T07:17:23.431Z,44.17
2023-05-09T07:18:19.775Z,42.76
2023-05-09T07:19:19.729Z,43.34
2023-05-09T07:20:19.736Z,43.12
2023-05-09T07:21:19.726Z,44.11
2023-05-09T07:22:19.711Z,41.69
2023-05-09T07:23:19.679Z,42.10
2023-05-09T07:24:19.673Z,42.82
2023-05-09T07:25:19.690Z,42.54
2023-05-09T07:26:19.662Z,43.12
2023-05-09T07:27:19.760Z,42.52
2023-05-09T07:28:19.638Z,42.61
2023-05-09T07:29:19.617Z,41.89
2023-05-09T07:30:19.620Z,41.57
2023-05-09T07:31:19.721Z,41.45
2023-05-09T07:32:19.583Z,41.33
2023-05-09T07:33:19.576Z,41.73
2023-05-09T07:34:19.559Z,42.11
2023-05-09T07:35:19.578Z,40.99
2023-05-09T07:36:19.537Z,39.28
2023-05-09T07:37:19.533Z,39.43
2023-05-09T07:38:19.514Z,40.84
2023-05-09T07:39:19.511Z,40.97
2023-05-09T07:40:19.577Z,40.36
2023-05-09T07:41:19.497Z,40.64
2023-05-09T07:42:19.470Z,40.14
2023-05-09T07:43:19.486Z,40.14
2023-05-09T07:44:19.450Z,40.50
2023-05-09T07:45:22.016Z,40.08
2023-05-09T07:46:19.468Z,39.45
2023-05-09T07:47:19.414Z,38.74
2023-05-09T07:48:19.408Z,38.14
2023-05-09T07:49:19.411Z,38.82
2023-05-09T07:50:19.381Z,37.74
2023-05-09T07:51:19.378Z,38.86
2023-05-09T07:52:19.380Z,38.36
2023-05-09T07:53:19.383Z,38.36
2023-05-09T07:54:19.364Z,37.96
2023-05-09T07:55:19.338Z,37.37
2023-05-09T07:56:19.316Z,38.38
2023-05-09T07:57:19.308Z,38.26
2023-05-09T07:58:19.315Z,37.63
2023-05-09T07:59:19.432Z,38.53
2023-05-09T08:00:19.280Z,36.82
2023-05-09T08:01:19.268Z,37.42
2023-05-09T08:02:19.273Z,37.28
2023-05-09T08:03:19.366Z,36.28
2023-05-09T08:04:19.272Z,36.46
2023-05-09T08:05:19.225Z,36.80
2023-05-09T08:06:19.218Z,38.12
2023-05-09T08:07:19.204Z,36.02
2023-05-09T08:08:19.204Z,35.82
2023-05-09T08:09:19.186Z,37.00
2023-05-09T08:10:19.166Z,38.62
2023-05-09T08:11:19.177Z,38.34
2023-05-09T08:12:19.211Z,39.12
2023-05-09T08:13:19.201Z,38.60
2023-05-09T08:14:19.137Z,38.60
2023-05-09T08:15:19.250Z,37.46
2023-05-09T08:16:19.139Z,36.57
2023-05-09T08:17:19.122Z,36.15
2023-05-09T08:18:19.091Z,35.44
2023-05-09T08:19:19.090Z,34.33
2023-05-09T08:20:19.077Z,34.38
2023-05-09T08:21:20.817Z,37.18
2023-05-09T08:22:19.134Z,36.38
2023-05-09T08:23:19.077Z,36.26
2023-05-09T08:24:19.024Z,35.73
2023-05-09T08:25:19.064Z,34.94
2023-05-09T08:26:19.014Z,35.66
2023-05-09T08:27:19.073Z,35.25
2023-05-09T08:28:18.983Z,35.35
2023-05-09T08:29:18.996Z,36.53
2023-05-09T08:30:18.968Z,35.61
2023-05-09T08:31:19.141Z,36.10
2023-05-09T08:32:18.944Z,33.86
2023-05-09T08:33:18.933Z,32.89
2023-05-09T08:34:18.939Z,34.21
2023-05-09T08:35:18.913Z,34.41
2023-05-09T08:36:18.916Z,33.43
2023-05-09T08:37:18.899Z,34.24
2023-05-09T08:38:18.883Z,34.48
2023-05-09T08:39:18.884Z,35.21
2023-05-09T08:40:18.873Z,35.03
2023-05-09T08:41:18.872Z,34.81
2023-05-09T08:42:18.840Z,34.83
2023-05-09T08:43:18.829Z,35.23
2023-05-09T08:44:18.822Z,35.06
2023-05-09T08:45:18.824Z,36.69
2023-05-09T08:46:18.809Z,37.29
2023-05-09T08:47:18.915Z,37.37
2023-05-09T08:48:18.791Z,36.93
2023-05-09T08:49:18.767Z,35.51
2023-05-09T08:50:19.052Z,35.53
2023-05-09T08:51:18.755Z,36.13
2023-05-09T08:52:18.734Z,35.61
2023-05-09T08:53:18.728Z,37.82
2023-05-09T08:54:20.082Z,36.60
2023-05-09T08:55:18.712Z,38.10
2023-05-09T08:56:18.690Z,34.98
2023-05-09T08:57:18.687Z,35.66
2023-05-09T08:58:18.671Z,35.26
2023-05-09T08:59:18.686Z,34.84
2023-05-09T09:00:20.426Z,34.64
2023-05-09T09:01:18.698Z,35.66
2023-05-09T09:02:18.632Z,35.50
2023-05-09T09:03:18.743Z,35.41
2023-05-09T09:04:18.704Z,35.89
2023-05-09T09:05:39.334Z,35.01
2023-05-09T09:06:19.584Z,35.69
2023-05-09T09:07:18.575Z,35.78
2023-05-09T09:08:18.592Z,35.76
2023-05-09T09:09:18.594Z,35.55
2023-05-09T09:10:18.572Z,34.43
2023-05-09T09:11:18.582Z,34.83
2023-05-09T09:12:18.538Z,34.41
2023-05-09T09:13:18.573Z,33.12
2023-05-09T09:14:18.526Z,34.74
2023-05-09T09:15:18.488Z,33.86
2023-05-09T09:16:18.552Z,33.36
2023-05-09T09:17:18.466Z,34.23
2023-05-09T09:18:18.475Z,33.54
2023-05-09T09:19:18.577Z,33.44
2023-05-09T09:20:18.434Z,34.43
2023-05-09T09:21:18.424Z,35.03
2023-05-09T09:22:18.438Z,34.21
2023-05-09T09:23:18.438Z,35.49
2023-05-09T09:24:18.429Z,34.99
2023-05-09T09:25:18.383Z,34.28
2023-05-09T09:26:18.378Z,33.47
2023-05-09T09:27:18.414Z,33.65
2023-05-09T09:28:18.356Z,33.35
2023-05-09T09:29:18.340Z,34.73
2023-05-09T09:30:18.328Z,34.11
2023-05-09T09:31:18.374Z,32.62
2023-05-09T09:32:18.429Z,33.91
2023-05-09T09:33:18.300Z,33.80
2023-05-09T09:34:18.307Z,33.40
2023-05-09T09:35:18.421Z,33.30
2023-05-09T09:36:18.310Z,33.30
2023-05-09T09:37:18.328Z,32.75
2023-05-09T09:38:18.258Z,33.06
2023-05-09T09:39:18.247Z,32.17
2023-05-09T09:40:18.347Z,32.86
2023-05-09T09:41:18.220Z,32.76
2023-05-09T09:42:18.254Z,31.68
2023-05-09T09:43:18.197Z,32.40
2023-05-09T09:44:18.234Z,32.51
2023-05-09T09:45:18.201Z,33.50
2023-05-09T09:46:18.213Z,33.80
2023-05-09T09:47:18.167Z,33.11
2023-05-09T09:48:18.142Z,34.01
2023-05-09T09:49:18.130Z,32.79
2023-05-09T09:50:18.432Z,33.08
2023-05-09T09:51:18.252Z,34.26
2023-05-09T09:52:18.096Z,32.08
2023-05-09T09:53:18.086Z,32.98
2023-05-09T09:54:18.110Z,32.88
2023-05-09T09:55:18.090Z,32.46
2023-05-09T09:56:18.081Z,32.76
2023-05-09T09:57:18.071Z,32.67
2023-05-09T09:58:18.047Z,32.65
2023-05-09T09:59:18.043Z,32.75
2023-05-09T10:00:18.092Z,32.67
2023-05-09T10:01:18.082Z,33.26
2023-05-09T10:02:17.999Z,32.98
2023-05-09T10:03:18.065Z,33.00
2023-05-09T10:04:17.988Z,32.79
2023-05-09T10:05:18.045Z,32.79
2023-05-09T10:06:17.962Z,32.61
2023-05-09T10:07:18.074Z,34.41
2023-05-09T10:08:17.959Z,34.51
2023-05-09T10:09:17.936Z,32.31
2023-05-09T10:10:18.002Z,32.84
2023-05-09T10:11:17.904Z,33.14
2023-05-09T10:12:17.888Z,34.36
2023-05-09T10:13:17.954Z,34.44
2023-05-09T10:14:17.892Z,33.34
2023-05-09T10:15:17.858Z,35.05
2023-05-09T10:16:21.354Z,34.34
2023-05-09T10:17:18.917Z,34.33
2023-05-09T10:18:17.994Z,34.31
2023-05-09T10:19:17.848Z,32.32
2023-05-09T10:20:17.800Z,33.14
2023-05-09T10:21:17.868Z,33.76
2023-05-09T10:22:17.835Z,32.69
2023-05-09T10:23:17.952Z,35.50
2023-05-09T10:24:17.768Z,35.01
2023-05-09T10:25:17.780Z,35.03
2023-05-09T10:26:17.745Z,36.23
2023-05-09T10:27:17.761Z,37.65
2023-05-09T10:28:17.734Z,35.77
2023-05-09T10:29:17.709Z,36.47
2023-05-09T10:30:17.702Z,38.18
2023-05-09T10:31:17.723Z,38.28
2023-05-09T10:32:17.738Z,37.41
2023-05-09T10:33:17.711Z,38.33
2023-05-09T10:34:17.653Z,39.45
2023-05-09T10:35:17.812Z,40.16
2023-05-09T10:36:17.637Z,40.16
2023-05-09T10:37:17.635Z,40.48
2023-05-09T10:38:17.608Z,40.36
2023-05-09T10:39:17.726Z,39.07
2023-05-09T10:40:17.625Z,38.57
2023-05-09T10:41:17.580Z,39.36
2023-05-09T10:42:17.568Z,39.96
2023-05-09T10:43:17.582Z,40.16
2023-05-09T10:44:17.564Z,39.86
2023-05-09T10:45:17.697Z,38.35
2023-05-09T10:46:17.649Z,38.77
2023-05-09T10:47:17.575Z,38.77
2023-05-09T10:48:17.498Z,39.59
2023-05-09T10:49:17.488Z,38.59
2023-05-09T10:50:17.515Z,37.48
2023-05-09T10:51:17.494Z,38.79
2023-05-09T10:52:17.482Z,40.40
2023-05-09T10:53:17.455Z,42.52
2023-05-09T10:54:17.437Z,43.22
2023-05-09T10:55:17.536Z,40.70
2023-05-09T10:56:17.426Z,40.30
2023-05-09T10:57:17.407Z,40.91
2023-05-09T10:58:17.402Z,40.70
2023-05-09T10:59:17.380Z,41.31
2023-05-09T11:00:17.367Z,41.33
2023-05-09T11:01:17.427Z,39.61
2023-05-09T11:02:17.349Z,41.93
2023-05-09T11:03:17.378Z,41.71
2023-05-09T11:04:17.347Z,39.41
2023-05-09T11:05:17.450Z,40.60
2023-05-09T11:06:17.319Z,40.40
2023-05-09T11:07:17.298Z,40.40
2023-05-09T11:08:17.288Z,40.80
2023-05-09T11:09:17.281Z,42.33
2023-05-09T11:10:17.275Z,41.61
2023-05-09T11:11:17.376Z,43.02
2023-05-09T11:12:17.248Z,39.29
2023-05-09T11:13:17.263Z,38.47
2023-05-09T11:14:17.222Z,39.78
2023-05-09T11:15:17.246Z,40.28
2023-05-09T11:16:17.240Z,39.98
2023-05-09T11:17:17.190Z,38.57
2023-05-09T11:18:18.847Z,38.37
2023-05-09T11:19:17.204Z,40.18
2023-05-09T11:20:17.176Z,39.28
2023-05-09T11:21:17.148Z,41.31
2023-05-09T11:22:17.152Z,40.00
2023-05-09T11:23:17.132Z,39.50
2023-05-09T11:24:17.129Z,40.10
2023-05-09T11:25:17.489Z,39.19
2023-05-09T11:26:17.127Z,40.80
2023-05-09T11:27:17.199Z,41.71
2023-05-09T11:28:17.072Z,42.92
2023-05-09T11:29:17.073Z,41.61
2023-05-09T11:30:17.085Z,42.11
2023-05-09T11:31:17.051Z,43.62
2023-05-09T11:32:17.186Z,44.11
2023-05-09T11:33:17.070Z,41.99
2023-05-09T11:34:17.035Z,43.00
2023-05-09T11:35:17.294Z,43.08
2023-05-09T11:36:16.991Z,41.67
2023-05-09T11:37:16.975Z,42.27
2023-05-09T11:38:16.967Z,40.48
2023-05-09T11:39:16.951Z,41.41
2023-05-09T11:40:16.978Z,41.71
2023-05-09T11:41:16.930Z,41.91
2023-05-09T11:42:16.927Z,40.69
2023-05-09T11:43:17.024Z,38.47
2023-05-09T11:44:16.904Z,37.66
2023-05-09T11:45:17.104Z,38.07
2023-05-09T11:46:16.907Z,38.57
2023-05-09T11:47:16.900Z,39.17
2023-05-09T11:48:16.874Z,39.68
2023-05-09T11:49:16.852Z,41.99
2023-05-09T11:50:16.836Z,38.37
2023-05-09T11:51:16.822Z,38.37
2023-05-09T11:52:16.830Z,39.98
2023-05-09T11:53:16.802Z,40.58
2023-05-09T11:54:16.813Z,40.66
2023-05-09T11:55:16.991Z,40.06
2023-05-09T11:56:16.784Z,39.25
2023-05-09T11:57:16.781Z,38.87
2023-05-09T11:58:16.749Z,39.29
2023-05-09T11:59:16.861Z,38.57
2023-05-09T12:00:16.723Z,39.37
2023-05-09T12:01:16.727Z,41.09
2023-05-09T12:02:16.828Z,39.05
2023-05-09T12:03:16.896Z,38.15
2023-05-09T12:04:16.706Z,37.95
2023-05-09T12:05:16.912Z,38.05
2023-05-09T12:06:16.707Z,38.55
2023-05-09T12:07:16.647Z,38.23
2023-05-09T12:08:16.642Z,37.34
2023-05-09T12:09:16.626Z,38.35
2023-05-09T12:10:16.771Z,39.34
2023-05-09T12:11:16.615Z,38.73
2023-05-09T12:12:16.594Z,37.73
2023-05-09T12:13:16.604Z,36.52
2023-05-09T12:14:16.590Z,35.83
2023-05-09T12:15:17.071Z,36.84
2023-05-09T12:16:16.603Z,37.16
2023-05-09T12:17:16.546Z,38.27
2023-05-09T12:18:16.526Z,37.06
2023-05-09T12:19:16.519Z,38.17
2023-05-09T12:20:16.550Z,36.33
2023-05-09T12:21:16.499Z,38.55
2023-05-09T12:22:16.486Z,38.64
2023-05-09T12:23:16.472Z,37.43
2023-05-09T12:24:16.462Z,38.55
2023-05-09T12:25:16.719Z,39.56
2023-05-09T12:26:16.442Z,39.54
2023-05-09T12:27:16.427Z,39.54
2023-05-09T12:28:16.432Z,40.16
2023-05-09T12:29:16.421Z,42.35
2023-05-09T12:30:16.416Z,40.64
2023-05-09T12:31:16.547Z,39.34
2023-05-09T12:32:16.393Z,38.64
2023-05-09T12:33:16.364Z,40.24
2023-05-09T12:34:16.374Z,41.75
2023-05-09T12:35:16.547Z,39.12
2023-05-09T12:36:16.352Z,38.21
2023-05-09T12:37:16.318Z,38.33
2023-05-09T12:38:16.319Z,39.34
2023-05-09T12:39:16.301Z,39.03
2023-05-09T12:40:16.296Z,40.34
2023-05-09T12:41:31.058Z,39.23
2023-05-09T12:42:17.269Z,38.13
2023-05-09T12:43:16.293Z,37.43
2023-05-09T12:44:16.250Z,38.03
2023-05-09T12:45:16.440Z,39.34
2023-05-09T12:46:16.269Z,39.94
2023-05-09T12:47:16.487Z,39.32
2023-05-09T12:48:16.202Z,38.31
2023-05-09T12:49:16.193Z,38.64
2023-05-09T12:50:16.217Z,38.64
2023-05-09T12:51:16.182Z,39.03
2023-05-09T12:52:16.215Z,39.54
2023-05-09T12:53:16.167Z,38.13